Lions Gate Bridge — H9LV — position and weather

sailwx.info

Track history (hours):
 
Tides and Currents Weather Stations Pressure Air Temp Water Temp Dewpoint Dewpoint Depression Visibility Wind Speed Wind Dir Waves Ship Positions

Lions Gate Bridge

Last reported at 2014-Oct-01 21:26 UTC. Time now 2014-Oct-01 22:19 UTC.
Position N 24°21' E 118°13'.

Length 284.7 m; beam 40 m.

Type: Cargo ship. MMSI: 351086000.

Date/timePositionNaut miles runAvg speedWind from/ knotsBaromVisibWave heightAir tempDewpointWater temp
2014-Oct-01 21:26N 24°21' E 118°13'0 0.0
2014-Oct-01 20:32N 24°21' E 118°13'0 0.0
2014-Oct-01 19:33N 24°21' E 118°13'0 0.1
2014-Oct-01 18:26N 24°21' E 118°13'0 0.0
2014-Oct-01 17:32N 24°21' E 118°13'0 0.0
2014-Oct-01 16:32N 24°21' E 118°13'0 0.1
2014-Oct-01 15:32N 24°21' E 118°13'0 0.1
2014-Oct-01 14:32N 24°21' E 118°13'0 0.0
2014-Oct-01 12:26N 24°21' E 118°13'0 0.0
2014-Oct-01 11:32N 24°21' E 118°13'0 0.0
2014-Oct-01 10:32N 24°21' E 118°13'0 0.0
2014-Oct-01 09:32N 24°21' E 118°13'0 0.1
2014-Oct-01 08:14N 24°21' E 118°13'0 0.0
2014-Oct-01 07:20N 24°21' E 118°13'0 0.1
2014-Oct-01 06:32N 24°21' E 118°13'0 0.0
2014-Oct-01 05:32N 24°21' E 118°13'0 0.0
2014-Oct-01 04:32N 24°21' E 118°13'0 0.1
2014-Oct-01 03:26N 24°21' E 118°13'0 0.1
2014-Oct-01 01:32N 24°21' E 118°13'0 0.0
2014-Oct-01 00:14N 24°21' E 118°13'0 0.0
2014-Sep-30 22:27N 24°21' E 118°13'0 0.0
2014-Sep-30 21:33N 24°21' E 118°13'0 0.1
2014-Sep-30 20:20N 24°21' E 118°13'0 0.0
2014-Sep-30 17:32N 24°21' E 118°13'0 0.0
2014-Sep-30 16:32N 24°21' E 118°13'0 0.0
2014-Sep-30 15:14N 24°21' E 118°13'0 0.0
2014-Sep-30 14:08N 24°21' E 118°13'0 0.0
2014-Sep-30 12:26N 24°21' E 118°13'0 0.0
2014-Sep-30 11:08N 24°21' E 118°13'0 0.0
2014-Sep-30 10:20N 24°21' E 118°13'0 0.0
2014-Sep-30 09:32N 24°21' E 118°13'0 0.1
2014-Sep-30 08:32N 24°21' E 118°13'0 0.0
2014-Sep-30 07:20N 24°21' E 118°13'0 0.0
2014-Sep-30 05:26N 24°21' E 118°13'0 0.0
2014-Sep-30 04:08N 24°21' E 118°13'0 0.1
2014-Sep-30 03:32N 24°21' E 118°13'0 0.1
2014-Sep-30 01:33N 24°21' E 118°13'0 0.1
2014-Sep-30 00:32N 24°21' E 118°13'0 0.2
2014-Sep-29 23:32N 24°21' E 118°13'5 4.7
2014-Sep-29 22:32N 24°16' E 118°14'1010.5
2014-Sep-29 21:33N 24°08' E 118°22'1713.0
2014-Sep-29 20:16N 23°55' E 118°33'5219.0
2014-Sep-29 17:33N 23°12' E 119°03'1918.6
2014-Sep-29 16:33N 23°04' E 119°21'1918.8
2014-Sep-29 15:33N 23°01' E 119°42'2019.5
2014-Sep-29 14:33N 22°48' E 119°57'1919.1
2014-Sep-29 13:33N 22°33' E 120°11'8 8.4
2014-Sep-29 12:33N 22°33' E 120°20'0 0.0
2014-Sep-29 10:06N 22°33' E 120°20'0 0.0
2014-Sep-29 09:30N 22°33' E 120°20'0 0.0
2014-Sep-29 08:30N 22°33' E 120°20'0 0.0
2014-Sep-29 07:24N 22°33' E 120°20'0 0.0
2014-Sep-29 06:30N 22°33' E 120°20'0 0.0
2014-Sep-29 02:06N 22°33' E 120°20'0 0.0
2014-Sep-29 01:18N 22°33' E 120°20'0 0.0
2014-Sep-29 00:30N 22°33' E 120°20'3 2.7
2014-Sep-28 23:33N 22°33' E 120°17'8 7.6
2014-Sep-28 22:33N 22°34' E 120°09'1616.4
2014-Sep-28 21:33N 22°47' E 119°58'8018.7
2014-Sep-28 17:15N 24°08' E 119°55'1919.6
2014-Sep-28 16:18N 24°24' E 120°05'1520.1
2014-Sep-28 15:33N 24°36' E 120°15'2121.5
2014-Sep-28 14:33N 24°53' E 120°29'3121.2
2014-Sep-28 13:07N 25°18' E 120°48'89420.4
2014-Sep-26 17:16N 33°47' E 134°53'1622.0
2014-Sep-26 16:34N 34°02' E 134°56'1717.1
2014-Sep-26 15:33N 34°19' E 134°59'1818.5
2014-Sep-26 14:33N 34°34' E 135°13'7 7.1
2014-Sep-26 13:32N 34°41' E 135°16'0 0.0
2014-Sep-26 12:28N 34°41' E 135°16'0 0.0
2014-Sep-26 11:29N 34°41' E 135°16'0 0.0
2014-Sep-26 10:29N 34°41' E 135°16'0 0.0
2014-Sep-26 09:29N 34°41' E 135°16'0 0.0
2014-Sep-26 08:29N 34°41' E 135°16'0 0.0
2014-Sep-26 07:32N 34°41' E 135°16'0 0.0
2014-Sep-26 06:29N 34°41' E 135°16'0 0.0
2014-Sep-26 05:32N 34°41' E 135°16'0 0.0
2014-Sep-26 04:31N 34°41' E 135°16'0 0.0
2014-Sep-26 03:32N 34°41' E 135°16'0 0.0
2014-Sep-26 02:29N 34°41' E 135°16'0 0.0
2014-Sep-26 01:32N 34°41' E 135°16'0 0.0
2014-Sep-26 00:29N 34°41' E 135°16'0 0.0
2014-Sep-25 23:32N 34°41' E 135°16'0 0.0
2014-Sep-25 22:33N 34°41' E 135°16'5 4.5
2014-Sep-25 21:33N 34°36' E 135°17'1414.0
2014-Sep-25 20:33N 34°26' E 135°05'1615.9
2014-Sep-25 19:33N 34°11' E 134°60'8 8.5
2014-Sep-25 18:34N 34°02' E 134°60'  
Track history (hours):
 
Tides and Currents Weather Stations Pressure Air Temp Water Temp Dewpoint Dewpoint Depression Visibility Wind Speed Wind Dir Waves Ship Positions

Lions Gate Bridge

Last reported at 2014-Oct-01 21:26 UTC. Time now 2014-Oct-01 22:19 UTC.
Position N 24°21' E 118°13'.

Length 284.7 m; beam 40 m.

Type: Cargo ship. MMSI: 351086000.

Date/timePositionNaut miles runAvg speedWind from/ knotsBaromVisibWave heightAir tempDewpointWater temp
2014-Oct-01 21:26N 24°21' E 118°13'0 0.0
2014-Oct-01 20:32N 24°21' E 118°13'0 0.0
2014-Oct-01 19:33N 24°21' E 118°13'0 0.1
2014-Oct-01 18:26N 24°21' E 118°13'0 0.0
2014-Oct-01 17:32N 24°21' E 118°13'0 0.0
2014-Oct-01 16:32N 24°21' E 118°13'0 0.1
2014-Oct-01 15:32N 24°21' E 118°13'0 0.1
2014-Oct-01 14:32N 24°21' E 118°13'0 0.0
2014-Oct-01 12:26N 24°21' E 118°13'0 0.0
2014-Oct-01 11:32N 24°21' E 118°13'0 0.0
2014-Oct-01 10:32N 24°21' E 118°13'0 0.0
2014-Oct-01 09:32N 24°21' E 118°13'0 0.1
2014-Oct-01 08:14N 24°21' E 118°13'0 0.0
2014-Oct-01 07:20N 24°21' E 118°13'0 0.1
2014-Oct-01 06:32N 24°21' E 118°13'0 0.0
2014-Oct-01 05:32N 24°21' E 118°13'0 0.0
2014-Oct-01 04:32N 24°21' E 118°13'0 0.1
2014-Oct-01 03:26N 24°21' E 118°13'0 0.1
2014-Oct-01 01:32N 24°21' E 118°13'0 0.0
2014-Oct-01 00:14N 24°21' E 118°13'0 0.0
2014-Sep-30 22:27N 24°21' E 118°13'0 0.0
2014-Sep-30 21:33N 24°21' E 118°13'0 0.1
2014-Sep-30 20:20N 24°21' E 118°13'0 0.0
2014-Sep-30 17:32N 24°21' E 118°13'0 0.0
2014-Sep-30 16:32N 24°21' E 118°13'0 0.0
2014-Sep-30 15:14N 24°21' E 118°13'0 0.0
2014-Sep-30 14:08N 24°21' E 118°13'0 0.0
2014-Sep-30 12:26N 24°21' E 118°13'0 0.0
2014-Sep-30 11:08N 24°21' E 118°13'0 0.0
2014-Sep-30 10:20N 24°21' E 118°13'0 0.0
2014-Sep-30 09:32N 24°21' E 118°13'0 0.1
2014-Sep-30 08:32N 24°21' E 118°13'0 0.0
2014-Sep-30 07:20N 24°21' E 118°13'0 0.0
2014-Sep-30 05:26N 24°21' E 118°13'0 0.0
2014-Sep-30 04:08N 24°21' E 118°13'0 0.1
2014-Sep-30 03:32N 24°21' E 118°13'0 0.1
2014-Sep-30 01:33N 24°21' E 118°13'0 0.1
2014-Sep-30 00:32N 24°21' E 118°13'0 0.2
2014-Sep-29 23:32N 24°21' E 118°13'5 4.7
2014-Sep-29 22:32N 24°16' E 118°14'1010.5
2014-Sep-29 21:33N 24°08' E 118°22'1713.0
2014-Sep-29 20:16N 23°55' E 118°33'5219.0
2014-Sep-29 17:33N 23°12' E 119°03'1918.6
2014-Sep-29 16:33N 23°04' E 119°21'1918.8
2014-Sep-29 15:33N 23°01' E 119°42'2019.5
2014-Sep-29 14:33N 22°48' E 119°57'1919.1
2014-Sep-29 13:33N 22°33' E 120°11'8 8.4
2014-Sep-29 12:33N 22°33' E 120°20'0 0.0
2014-Sep-29 10:06N 22°33' E 120°20'0 0.0
2014-Sep-29 09:30N 22°33' E 120°20'0 0.0
2014-Sep-29 08:30N 22°33' E 120°20'0 0.0
2014-Sep-29 07:24N 22°33' E 120°20'0 0.0
2014-Sep-29 06:30N 22°33' E 120°20'0 0.0
2014-Sep-29 02:06N 22°33' E 120°20'0 0.0
2014-Sep-29 01:18N 22°33' E 120°20'0 0.0
2014-Sep-29 00:30N 22°33' E 120°20'3 2.7
2014-Sep-28 23:33N 22°33' E 120°17'8 7.6
2014-Sep-28 22:33N 22°34' E 120°09'1616.4
2014-Sep-28 21:33N 22°47' E 119°58'8018.7
2014-Sep-28 17:15N 24°08' E 119°55'1919.6
2014-Sep-28 16:18N 24°24' E 120°05'1520.1
2014-Sep-28 15:33N 24°36' E 120°15'2121.5
2014-Sep-28 14:33N 24°53' E 120°29'3121.2
2014-Sep-28 13:07N 25°18' E 120°48'89420.4
2014-Sep-26 17:16N 33°47' E 134°53'1622.0
2014-Sep-26 16:34N 34°02' E 134°56'1717.1
2014-Sep-26 15:33N 34°19' E 134°59'1818.5
2014-Sep-26 14:33N 34°34' E 135°13'7 7.1
2014-Sep-26 13:32N 34°41' E 135°16'0 0.0
2014-Sep-26 12:28N 34°41' E 135°16'0 0.0
2014-Sep-26 11:29N 34°41' E 135°16'0 0.0
2014-Sep-26 10:29N 34°41' E 135°16'0 0.0
2014-Sep-26 09:29N 34°41' E 135°16'0 0.0
2014-Sep-26 08:29N 34°41' E 135°16'0 0.0
2014-Sep-26 07:32N 34°41' E 135°16'0 0.0
2014-Sep-26 06:29N 34°41' E 135°16'0 0.0
2014-Sep-26 05:32N 34°41' E 135°16'0 0.0
2014-Sep-26 04:31N 34°41' E 135°16'0 0.0
2014-Sep-26 03:32N 34°41' E 135°16'0 0.0
2014-Sep-26 02:29N 34°41' E 135°16'0 0.0
2014-Sep-26 01:32N 34°41' E 135°16'0 0.0
2014-Sep-26 00:29N 34°41' E 135°16'0 0.0
2014-Sep-25 23:32N 34°41' E 135°16'0 0.0
2014-Sep-25 22:33N 34°41' E 135°16'5 4.5
2014-Sep-25 21:33N 34°36' E 135°17'1414.0
2014-Sep-25 20:33N 34°26' E 135°05'1615.9
2014-Sep-25 19:33N 34°11' E 134°60'8 8.5
2014-Sep-25 18:34N 34°02' E 134°60'  

Dump ship's entire track history